METAR Data
IDs: Format: Raw Decoded Include TAF

Data at: 1300 UTC 23 Sep 2018

KPXE 231235Z AUTO 00000KT 10SM CLR 21/20 A3007 RMK AO2 T02140201
KPXE 231215Z AUTO 06003KT 10SM CLR 20/20 A3007 RMK AO2 T02040196
KPXE 231155Z AUTO 00000KT 10SM CLR 19/19 A3007 RMK AO2 T01930188 10200 20186
KPXE 231135Z AUTO 00000KT 10SM CLR 19/19 A3006 RMK AO2 T01900185
KPXE 231115Z AUTO 00000KT 10SM CLR 19/18 A3006 RMK AO2 T01900185
KPXE 231055Z AUTO 00000KT 10SM CLR 19/18 A3005 RMK AO2 T01890184
KPXE 231035Z AUTO 00000KT 10SM SCT070 19/18 A3005 RMK AO2 T01890184
KPXE 231015Z AUTO 00000KT 10SM SCT070 19/18 A3005 RMK AO2 T01880182
KPXE 230955Z AUTO 00000KT 10SM CLR 19/18 A3004 RMK AO2 T01870180
KPXE 230935Z AUTO 00000KT 10SM CLR 19/18 A3004 RMK AO2 T01890182
KPXE 230915Z AUTO 00000KT 10SM CLR 19/18 A3004 RMK AO2 T01890183
KPXE 230850Z AUTO 00000KT 10SM CLR 19/18 A3004 RMK AO2 T01910184
KPXE 230835Z AUTO 34003KT 10SM CLR 19/18 A3004 RMK AO2 T01900182
KPXE 230815Z AUTO 00000KT 10SM CLR 19/19 A3004 RMK AO2 T01940185
KPXE 230755Z AUTO 00000KT 10SM CLR 20/19 A3004 RMK AO2 T01960185
KPXE 230735Z AUTO 00000KT 10SM CLR 19/18 A3004 RMK AO2 T01940184
KPXE 230715Z AUTO 00000KT 10SM CLR 19/18 A3004 RMK AO2 T01940185
KPXE 230655Z AUTO 08003KT 10SM CLR 20/19 A3005 RMK AO2 T01960188
KPXE 230635Z AUTO 00000KT 10SM CLR 20/19 A3005 RMK AO2 T01980188
KPXE 230615Z AUTO 00000KT 10SM CLR 20/19 A3005 RMK AO2 T01980187
KPXE 230555Z AUTO 00000KT 10SM CLR 20/19 A3006 RMK AO2 T01990187 10271 20199
KPXE 230535Z AUTO 00000KT 10SM CLR 20/19 A3006 RMK AO2 T02020188
KPXE 230515Z AUTO 00000KT 10SM CLR 20/19 A3007 RMK AO2 T02030187
KPXE 230455Z AUTO 00000KT 10SM CLR 21/19 A3007 RMK AO2 T02110190
KPXE 230435Z AUTO 13003KT 10SM CLR 21/19 A3007 RMK AO2 T02070187
KPXE 230415Z AUTO 00000KT 10SM CLR 22/18 A3008 RMK AO2 T02200185
KPXE 230355Z AUTO 00000KT 10SM CLR 23/18 A3008 RMK AO2 T02290183
KPXE 230335Z AUTO 16003KT 10SM CLR 23/18 A3008 RMK AO2 T02330182
KPXE 230315Z AUTO 14003KT 10SM CLR 24/18 A3008 RMK AO2 T02360179
KPXE 230255Z AUTO 16004KT 10SM CLR 23/18 A3008 RMK AO2 T02350177
KPXE 230235Z AUTO 15005KT 10SM CLR 24/18 A3007 RMK AO2 T02380176
KPXE 230215Z AUTO 13004KT 10SM CLR 23/18 A3007 RMK AO2 T02310180
KPXE 230155Z AUTO 13004KT 10SM CLR 23/18 A3006 RMK AO2 T02310179
KPXE 230135Z AUTO 00000KT 10SM CLR 22/19 A3006 RMK AO2 T02240188
KPXE 230115Z AUTO 00000KT 10SM CLR 23/19 A3005 RMK AO2 T02270186
KPXE 230055Z AUTO 00000KT 10SM CLR 25/18 A3004 RMK AO2 T02500176
KPXE 230035Z AUTO 14003KT 10SM CLR 26/17 A3003 RMK AO2 T02620171
KPXE 230015Z AUTO 14005KT 10SM CLR 27/17 A3002 RMK AO2 T02660171
KPXE 222355Z AUTO 14005KT 10SM CLR 27/17 A3002 RMK AO2 T02730172 10336 20272 403360194
KPXE 222335Z AUTO 13005KT 10SM CLR 28/17 A3002 RMK AO2 T02820170
KPXE 222315Z AUTO 13005KT 10SM CLR 29/17 A3001 RMK AO2 T02920170
KPXE 222255Z AUTO 13006KT 10SM CLR 30/17 A3001 RMK AO2 T03020165
KPXE 222235Z AUTO 13007KT 10SM CLR 31/16 A3001 RMK AO2 T03080163
KPXE 222215Z AUTO 13007KT 10SM CLR 31/16 A3001 RMK AO2 T03130159
KPXE 222155Z AUTO 11008KT 10SM CLR 32/16 A3000 RMK AO2 T03180159
KPXE 222135Z AUTO 09006KT 10SM CLR 33/16 A3000 RMK AO2 T03260159
KPXE 222115Z AUTO 12006KT 10SM CLR 32/16 A3001 RMK AO2 T03220162
KPXE 222055Z AUTO 09008KT 10SM CLR 33/16 A3001 RMK AO2 T03290165
KPXE 222035Z AUTO 00000KT 10SM CLR 33/17 A3002 RMK AO2 T03300165
KPXE 222015Z AUTO 10005KT 10SM SCT060 32/17 A3003 RMK AO2 T03190170
KPXE 221955Z AUTO 12007KT 10SM SCT060 SCT090 33/17 A3003 RMK AO2 T03250170
KPXE 221935Z AUTO 10006KT 10SM SCT065 SCT080 BKN090 32/17 A3004 RMK AO2 T03240175
KPXE 221915Z AUTO 11006KT 10SM SCT065 BKN090 31/17 A3005 RMK AO2 T03140168
KPXE 221855Z AUTO 11006KT 10SM SCT055 SCT075 SCT085 33/17 A3006 RMK AO2 T03320168
KPXE 221835Z AUTO 00000KT 10SM SCT055 SCT075 SCT085 32/18 A3007 RMK AO2 T03170179
KPXE 221815Z AUTO 07005KT 10SM CLR 32/19 A3008 RMK AO2 T03240186
KPXE 221755Z AUTO 12007KT 10SM CLR 30/18 A3009 RMK AO2 T03020182 10322 20203
KPXE 221735Z AUTO 14004KT 10SM SCT048 SCT060 31/18 A3009 RMK AO2 T03090183
KPXE 221715Z AUTO 01003KT 10SM SCT048 SCT060 30/19 A3010 RMK AO2 T03050187
KPXE 221655Z AUTO 07006KT 10SM CLR 31/19 A3011 RMK AO2 T03080192
KPXE 221635Z AUTO 05005KT 10SM CLR 31/20 A3011 RMK AO2 T03070198
KPXE 221615Z AUTO 09007KT 070V130 10SM SCT035 30/20 A3012 RMK AO2 T03000200
KPXE 221555Z AUTO 07004KT 10SM SCT034 SCT065 30/21 A3012 RMK AO2 T03000207
KPXE 221535Z AUTO 06004KT 10SM CLR 29/21 A3013 RMK AO2 T02900207
KPXE 221515Z AUTO 08004KT 10SM CLR 29/21 A3013 RMK AO2 T02880208
KPXE 221455Z AUTO 00000KT 10SM CLR 28/22 A3013 RMK AO2 T02800218
KPXE 221435Z AUTO 15004KT 10SM CLR 27/22 A3013 RMK AO2 T02700216
KPXE 221415Z AUTO 00000KT 10SM CLR 26/22 A3013 RMK AO2 T02600219
KPXE 221355Z AUTO 00000KT 10SM SCT070 25/22 A3013 RMK AO2 T02480217
KPXE 221335Z AUTO 00000KT 10SM BKN060 23/21 A3013 RMK AO2 T02350212
KPXE 221315Z AUTO 03003KT 10SM BKN060 22/21 A3013 RMK AO2 T02250210
KPXE 221255Z AUTO 00000KT 10SM SCT070 22/21 A3013 RMK AO2 T02210208
KPXE 221235Z AUTO 00000KT 10SM SCT070 22/21 A3013 RMK AO2 T02160206
KPXE 221215Z AUTO 00000KT 10SM CLR 21/20 A3012 RMK AO2 T02090203
KPXE 221155Z AUTO 00000KT 10SM CLR 20/20 A3011 RMK AO2 T02010197 10217 20194
KPXE 221135Z AUTO 00000KT 10SM CLR 20/19 A3011 RMK AO2 T01970194
KPXE 221115Z AUTO 06003KT 10SM CLR 20/19 A3011 RMK AO2 T01960193
KPXE 221055Z AUTO 00000KT 7SM CLR 20/19 A3011 RMK AO2 T01980194
KPXE 221035Z AUTO 08003KT 10SM CLR 20/19 A3011 RMK AO2 T01960192
KPXE 221015Z AUTO 02004KT 7SM CLR 19/19 A3011 RMK AO2 T01950190
KPXE 220955Z AUTO 00000KT 7SM CLR 20/19 A3011 RMK AO2 T01970193
KPXE 220935Z AUTO 00000KT 7SM CLR 20/19 A3011 RMK AO2 T01980193
KPXE 220915Z AUTO 00000KT 10SM CLR 20/19 A3011 RMK AO2 T01970190
KPXE 220855Z AUTO 00000KT 7SM CLR 20/19 A3011 RMK AO2 T01990193
KPXE 220835Z AUTO 00000KT 10SM CLR 21/20 A3011 RMK AO2 T02070201
KPXE 220815Z AUTO 00000KT 10SM CLR 20/20 A3011 RMK AO2 T02040197
KPXE 220755Z AUTO 00000KT 10SM CLR 21/20 A3012 RMK AO2 T02050197
KPXE 220735Z AUTO 00000KT 10SM CLR 21/20 A3012 RMK AO2 T02060199
KPXE 220715Z AUTO 00000KT 10SM CLR 21/20 A3012 RMK AO2 T02090202
KPXE 220655Z AUTO 00000KT 10SM CLR 21/20 A3013 RMK AO2 T02100203
KPXE 220635Z AUTO 00000KT 10SM CLR 21/20 A3012 RMK AO2 T02100201
KPXE 220615Z AUTO 00000KT 10SM CLR 22/20 A3013 RMK AO2 T02150203
KPXE 220555Z AUTO 00000KT 10SM CLR 21/20 A3013 RMK AO2 T02150203 10277 20214
KPXE 220535Z AUTO 00000KT 10SM CLR 22/21 A3013 RMK AO2 T02180208
KPXE 220515Z AUTO 00000KT 10SM CLR 22/21 A3013 RMK AO2 T02200209
KPXE 220455Z AUTO 09003KT 10SM CLR 22/21 A3013 RMK AO2 T02210208
KPXE 220435Z AUTO 00000KT 10SM CLR 22/21 A3014 RMK AO2 T02250209
KPXE 220415Z AUTO 00000KT 10SM CLR 24/21 A3014 RMK AO2 T02390211
KPXE 220355Z AUTO 17003KT 10SM CLR 24/21 A3014 RMK AO2 T02410211
KPXE 220335Z AUTO 16003KT 10SM CLR 25/21 A3014 RMK AO2 T02480211
KPXE 220315Z AUTO 15005KT 10SM CLR 25/21 A3013 RMK AO2 T02490210
KPXE 220255Z AUTO 15004KT 10SM CLR 25/21 A3013 RMK AO2 T02460209
KPXE 220235Z AUTO 16003KT 10SM CLR 25/21 A3013 RMK AO2 T02510209
KPXE 220215Z AUTO 17003KT 10SM CLR 25/21 A3013 RMK AO2 T02540207
KPXE 220155Z AUTO 17005KT 10SM CLR 27/21 A3013 RMK AO2 T02660206
KPXE 220135Z AUTO 15007KT 10SM SCT060 27/20 A3012 RMK AO2 T02680204
KPXE 220115Z AUTO 14005KT 10SM SCT060 27/20 A3011 RMK AO2 T02700202